createdAt,value
2023-01-01T00:01:19.809Z,99370.40
2023-01-01T00:03:53.773Z,99370.95
2023-01-01T00:06:25.306Z,99370.11
2023-01-01T00:09:10.039Z,99371.38
2023-01-01T00:11:40.902Z,99374.21
2023-01-01T00:14:12.647Z,99372.64
2023-01-01T00:16:43.821Z,99372.14
2023-01-01T00:19:14.681Z,99359.37
2023-01-01T00:21:46.608Z,99354.38
2023-01-01T00:24:17.442Z,99349.25
2023-01-01T00:26:48.296Z,99340.98
2023-01-01T00:29:19.002Z,99343.46
2023-01-01T00:31:50.345Z,99342.71
2023-01-01T00:34:21.048Z,99351.44
2023-01-01T00:36:52.064Z,99353.84
2023-01-01T00:39:22.780Z,99353.45
2023-01-01T00:41:53.637Z,99355.73
2023-01-01T00:44:24.441Z,99362.54
2023-01-01T00:46:55.278Z,99367.48
2023-01-01T00:49:26.041Z,99372.38
2023-01-01T00:51:56.782Z,99377.16
2023-01-01T00:54:27.825Z,99380.55
2023-01-01T00:56:58.637Z,99386.36
2023-01-01T00:59:29.390Z,99398.52
2023-01-01T01:02:00.304Z,99399.85
2023-01-01T01:04:31.188Z,99399.56
2023-01-01T01:07:02.025Z,99405.20
2023-01-01T01:09:32.735Z,99408.70
2023-01-01T01:12:17.768Z,99406.85
2023-01-01T01:14:50.113Z,99414.82
2023-01-01T01:17:20.839Z,99416.81
2023-01-01T01:19:51.507Z,99416.35
2023-01-01T01:22:28.024Z,99418.34
2023-01-01T01:24:59.721Z,99419.46
2023-01-01T01:27:30.632Z,99412.35
2023-01-01T01:30:01.590Z,99412.82
2023-01-01T01:32:32.227Z,99411.83
2023-01-01T01:35:02.997Z,99412.94
2023-01-01T01:37:33.655Z,99413.23
2023-01-01T01:40:04.951Z,99413.02
2023-01-01T01:42:36.099Z,99401.10
2023-01-01T01:45:11.406Z,99394.50
2023-01-01T01:47:47.815Z,99397.92
2023-01-01T01:50:22.843Z,99399.58
2023-01-01T01:53:03.687Z,99394.33
2023-01-01T01:55:38.738Z,99394.46
2023-01-01T01:58:14.721Z,99385.77
2023-01-01T02:00:45.512Z,99392.52
2023-01-01T02:03:20.133Z,99384.38
2023-01-01T02:05:52.663Z,99382.70
2023-01-01T02:08:24.420Z,99378.95
2023-01-01T02:10:55.459Z,99380.60
2023-01-01T02:13:26.303Z,99371.83
2023-01-01T02:16:12.458Z,99374.00
2023-01-01T02:18:51.627Z,99373.41
2023-01-01T02:21:26.230Z,99367.77
2023-01-01T02:24:11.287Z,99378.73
2023-01-01T02:26:51.641Z,99375.04
2023-01-01T02:29:33.023Z,99376.23
2023-01-01T02:32:09.266Z,99380.70
2023-01-01T02:34:44.770Z,99378.88
2023-01-01T02:37:20.007Z,99379.27
2023-01-01T02:39:56.575Z,99379.70
2023-01-01T02:42:31.112Z,99382.02
2023-01-01T02:45:02.521Z,99387.59
2023-01-01T02:47:33.149Z,99389.70
2023-01-01T02:50:13.739Z,99389.20
2023-01-01T02:53:00.404Z,99385.63
2023-01-01T02:55:48.453Z,99383.88
2023-01-01T02:58:48.604Z,99389.92
2023-01-01T03:01:28.464Z,99396.02
2023-01-01T03:04:08.790Z,99397.05
2023-01-01T03:06:47.591Z,99395.42
2023-01-01T03:09:27.354Z,99396.91
2023-01-01T03:11:59.116Z,99392.99
2023-01-01T03:14:39.337Z,99400.60
2023-01-01T03:17:17.375Z,99398.83
2023-01-01T03:19:50.673Z,99404.38
2023-01-01T03:22:26.843Z,99408.69
2023-01-01T03:25:02.791Z,99413.56
2023-01-01T03:27:38.952Z,99413.98
2023-01-01T03:30:13.955Z,99419.73
2023-01-01T03:33:03.863Z,99411.80
2023-01-01T03:35:43.610Z,99407.71
2023-01-01T03:38:19.725Z,99413.48
2023-01-01T03:40:54.864Z,99416.47
2023-01-01T03:43:35.943Z,99422.52
2023-01-01T03:46:09.341Z,99420.16
2023-01-01T03:48:58.661Z,99414.25
2023-01-01T03:51:49.051Z,99417.35
2023-01-01T03:54:29.862Z,99416.03
2023-01-01T03:57:05.324Z,99418.55
2023-01-01T03:59:45.142Z,99416.23
2023-01-01T04:02:16.875Z,99415.30
2023-01-01T04:04:48.811Z,99411.60
2023-01-01T04:07:20.429Z,99409.17
2023-01-01T04:09:55.200Z,99409.47
2023-01-01T04:12:26.461Z,99404.18
2023-01-01T04:14:57.103Z,99405.27
2023-01-01T04:17:28.129Z,99401.80
2023-01-01T04:19:58.734Z,99398.60
2023-01-01T04:22:29.709Z,99396.52
2023-01-01T04:25:00.336Z,99395.65
2023-01-01T04:27:31.373Z,99400.12
2023-01-01T04:30:02.226Z,99406.26
2023-01-01T04:32:33.546Z,99412.10
2023-01-01T04:35:04.611Z,99414.45
2023-01-01T04:37:38.023Z,99419.31
2023-01-01T04:40:11.430Z,99424.72
2023-01-01T04:42:43.398Z,99427.61
2023-01-01T04:45:15.520Z,99427.73
2023-01-01T04:47:46.923Z,99434.50
2023-01-01T04:50:17.839Z,99439.27
2023-01-01T04:52:51.382Z,99445.61
2023-01-01T04:55:22.035Z,99451.90
2023-01-01T04:57:52.764Z,99456.29
2023-01-01T05:00:24.297Z,99452.98
2023-01-01T05:02:54.992Z,99457.95
2023-01-01T05:05:26.562Z,99457.23
2023-01-01T05:07:57.611Z,99457.52
2023-01-01T05:10:28.572Z,99466.02
2023-01-01T05:12:59.204Z,99468.08
2023-01-01T05:15:30.159Z,99471.13
2023-01-01T05:18:00.985Z,99471.13
2023-01-01T05:20:31.878Z,99469.63
2023-01-01T05:23:02.768Z,99468.73
2023-01-01T05:25:33.379Z,99472.81
2023-01-01T05:28:04.034Z,99474.98
2023-01-01T05:30:34.676Z,99473.83
2023-01-01T05:33:05.515Z,99484.11
2023-01-01T05:35:36.320Z,99485.80
2023-01-01T05:38:06.989Z,99479.05
2023-01-01T05:40:39.264Z,99478.27
2023-01-01T05:43:10.424Z,99484.05
2023-01-01T05:45:41.382Z,99485.42
2023-01-01T05:48:12.172Z,99480.08
2023-01-01T05:50:42.935Z,99483.47
2023-01-01T05:53:13.532Z,99484.44
2023-01-01T05:55:44.205Z,99483.01
2023-01-01T05:58:14.868Z,99484.69
2023-01-01T06:00:45.582Z,99485.10
2023-01-01T06:03:16.728Z,99491.73
2023-01-01T06:05:47.357Z,99496.95
2023-01-01T06:08:18.097Z,99508.50
2023-01-01T06:10:48.705Z,99504.25
2023-01-01T06:13:19.648Z,99511.98
2023-01-01T06:15:57.858Z,99516.05
2023-01-01T06:18:30.753Z,99519.21
2023-01-01T06:21:08.827Z,99522.38
2023-01-01T06:23:39.612Z,99525.23
2023-01-01T06:26:12.586Z,99521.90
2023-01-01T06:28:44.564Z,99525.32
2023-01-01T06:31:17.058Z,99521.66
2023-01-01T06:33:48.726Z,99521.84
2023-01-01T06:36:21.991Z,99521.21
2023-01-01T06:38:55.374Z,99520.19
2023-01-01T06:41:27.365Z,99518.72
2023-01-01T06:44:01.971Z,99518.58
2023-01-01T06:46:34.426Z,99515.08
2023-01-01T06:49:07.928Z,99514.34
2023-01-01T06:51:40.654Z,99517.17
2023-01-01T06:54:12.404Z,99520.91
2023-01-01T06:56:43.086Z,99526.67
2023-01-01T06:59:13.792Z,99538.71
2023-01-01T07:01:45.230Z,99540.48
2023-01-01T07:04:17.189Z,99547.34
2023-01-01T07:06:47.885Z,99548.23
2023-01-01T07:09:18.585Z,99548.88
2023-01-01T07:11:49.329Z,99543.76
2023-01-01T07:14:19.988Z,99548.36
2023-01-01T07:16:50.695Z,99555.52
2023-01-01T07:19:21.538Z,99556.55
2023-01-01T07:21:56.555Z,99560.12
2023-01-01T07:24:27.211Z,99564.98
2023-01-01T07:26:58.258Z,99576.95
2023-01-01T07:29:28.999Z,99590.48
2023-01-01T07:31:59.730Z,99603.88
2023-01-01T07:34:30.781Z,99600.05
2023-01-01T07:37:01.867Z,99594.50
2023-01-01T07:39:32.626Z,99599.82
2023-01-01T07:42:09.176Z,99600.27
2023-01-01T07:44:41.618Z,99598.92
2023-01-01T07:47:21.783Z,99606.61
2023-01-01T07:49:53.252Z,99609.77
2023-01-01T07:52:23.974Z,99609.95
2023-01-01T07:54:54.699Z,99616.11
2023-01-01T07:57:25.530Z,99627.15
2023-01-01T07:59:56.358Z,99625.23
2023-01-01T08:02:27.267Z,99629.98
2023-01-01T08:04:58.061Z,99632.74
2023-01-01T08:07:28.812Z,99632.38
2023-01-01T08:09:59.948Z,99633.24
2023-01-01T08:12:30.777Z,99637.25
2023-01-01T08:15:01.719Z,99644.63
2023-01-01T08:17:32.415Z,99650.77
2023-01-01T08:20:03.134Z,99650.85
2023-01-01T08:22:33.940Z,99652.23
2023-01-01T08:25:04.830Z,99650.99
2023-01-01T08:27:35.823Z,99646.88
2023-01-01T08:30:08.068Z,99642.87
2023-01-01T08:32:38.741Z,99639.57
2023-01-01T08:35:10.718Z,99638.58
2023-01-01T08:37:41.535Z,99633.05
2023-01-01T08:40:14.874Z,99623.02
2023-01-01T08:42:45.564Z,99634.27
2023-01-01T08:45:16.627Z,99636.94
2023-01-01T08:47:47.693Z,99641.13
2023-01-01T08:50:18.848Z,99644.25
2023-01-01T08:52:49.701Z,99644.84
2023-01-01T08:55:20.497Z,99644.30
2023-01-01T08:57:51.230Z,99642.39
2023-01-01T09:00:22.446Z,99645.45
2023-01-01T09:02:53.656Z,99648.19
2023-01-01T09:05:24.576Z,99658.89
2023-01-01T09:07:55.442Z,99659.71
2023-01-01T09:10:26.334Z,99654.61
2023-01-01T09:13:00.180Z,99661.31
2023-01-01T09:15:30.964Z,99661.92
2023-01-01T09:18:02.021Z,99666.99
2023-01-01T09:20:33.162Z,99667.23
2023-01-01T09:23:05.941Z,99661.23
2023-01-01T09:28:32.346Z,99659.14
2023-01-01T09:31:05.341Z,99658.71
2023-01-01T09:33:36.805Z,99654.05
2023-01-01T09:36:27.879Z,99661.33
2023-01-01T09:38:59.838Z,99661.61
2023-01-01T09:41:41.411Z,99660.63
2023-01-01T09:44:26.497Z,99654.08
2023-01-01T09:47:02.080Z,99657.77
2023-01-01T09:49:36.704Z,99649.83
2023-01-01T09:52:08.593Z,99646.93
2023-01-01T09:54:42.235Z,99648.45
2023-01-01T09:57:20.071Z,99652.77
2023-01-01T09:59:51.287Z,99655.98
2023-01-01T10:02:40.771Z,99652.59
2023-01-01T10:05:22.845Z,99649.70
2023-01-01T10:07:59.920Z,99646.11
2023-01-01T10:10:40.591Z,99644.48
2023-01-01T10:13:23.379Z,99640.36
2023-01-01T10:15:59.720Z,99642.05
2023-01-01T10:18:34.916Z,99642.30
2023-01-01T10:21:12.209Z,99649.95
2023-01-01T10:23:49.611Z,99650.30
2023-01-01T10:26:23.854Z,99661.55
2023-01-01T10:29:01.780Z,99662.28
2023-01-01T10:31:36.415Z,99659.31
2023-01-01T10:34:16.989Z,99665.49
2023-01-01T10:36:48.130Z,99666.49
2023-01-01T10:39:19.604Z,99660.18
2023-01-01T10:41:50.785Z,99659.92
2023-01-01T10:44:28.161Z,99656.41
2023-01-01T10:47:00.519Z,99656.23
2023-01-01T10:49:31.341Z,99655.77
2023-01-01T10:52:02.947Z,99649.73
2023-01-01T10:54:36.901Z,99645.89
2023-01-01T10:57:19.637Z,99642.67
2023-01-01T10:59:54.457Z,99648.13
2023-01-01T11:02:27.645Z,99647.04
2023-01-01T11:05:21.660Z,99650.39
2023-01-01T11:07:53.071Z,99649.11
2023-01-01T11:10:26.346Z,99651.20
2023-01-01T11:13:05.846Z,99647.11
2023-01-01T11:15:41.417Z,99644.75
2023-01-01T11:18:16.030Z,99643.98
2023-01-01T11:20:52.242Z,99644.99
2023-01-01T11:23:35.100Z,99650.60
2023-01-01T11:26:20.077Z,99646.70
2023-01-01T11:29:03.915Z,99640.19
2023-01-01T11:31:40.032Z,99638.95
2023-01-01T11:34:27.131Z,99633.20
2023-01-01T11:37:19.205Z,99632.07
2023-01-01T11:39:52.997Z,99624.67
2023-01-01T11:42:26.079Z,99628.66
2023-01-01T11:44:59.628Z,99627.61
2023-01-01T11:47:35.851Z,99622.38
2023-01-01T11:50:19.527Z,99631.56
2023-01-01T11:52:52.354Z,99633.22
2023-01-01T11:55:31.582Z,99630.02
2023-01-01T11:58:15.913Z,99629.73
2023-01-01T12:00:55.399Z,99629.86
2023-01-01T12:03:33.529Z,99628.05
2023-01-01T12:06:10.047Z,99624.29
2023-01-01T12:08:46.287Z,99620.99
2023-01-01T12:11:25.656Z,99619.20
2023-01-01T12:14:03.268Z,99615.41
2023-01-01T12:16:47.628Z,99617.67
2023-01-01T12:19:24.621Z,99620.48
2023-01-01T12:22:00.101Z,99624.88
2023-01-01T12:24:36.139Z,99629.09
2023-01-01T12:27:20.260Z,99623.89
2023-01-01T12:30:15.195Z,99624.48
2023-01-01T12:33:08.134Z,99624.30
2023-01-01T12:35:57.427Z,99624.28
2023-01-01T12:38:45.732Z,99617.45
2023-01-01T12:41:28.134Z,99617.96
2023-01-01T12:44:08.866Z,99615.98
2023-01-01T12:46:57.139Z,99616.16
2023-01-01T12:49:51.517Z,99619.63
2023-01-01T12:52:36.844Z,99621.96
2023-01-01T12:55:36.500Z,99624.13
2023-01-01T12:58:13.265Z,99619.94
2023-01-01T13:00:49.851Z,99621.05
2023-01-01T13:03:25.509Z,99621.60
2023-01-01T13:05:58.935Z,99618.08
2023-01-01T13:08:29.896Z,99622.20
2023-01-01T13:11:03.735Z,99626.94
2023-01-01T13:13:34.781Z,99631.06
2023-01-01T13:16:07.146Z,99636.59
2023-01-01T13:18:39.766Z,99636.99
2023-01-01T13:21:26.029Z,99638.59
2023-01-01T13:24:01.487Z,99641.38
2023-01-01T13:26:40.184Z,99645.23
2023-01-01T13:29:45.149Z,99645.14
2023-01-01T13:32:17.778Z,99644.00
2023-01-01T13:35:20.260Z,99643.58
2023-01-01T13:37:51.710Z,99643.45
2023-01-01T13:40:51.453Z,99646.42
2023-01-01T13:43:29.872Z,99646.86
2023-01-01T13:46:13.574Z,99650.92
2023-01-01T13:49:03.795Z,99653.35
2023-01-01T13:52:08.412Z,99650.79
2023-01-01T13:55:18.177Z,99654.15
2023-01-01T13:58:16.539Z,99653.67
2023-01-01T14:01:07.435Z,99657.68
2023-01-01T14:03:45.142Z,99663.52
2023-01-01T14:06:23.147Z,99664.79
2023-01-01T14:09:04.333Z,99666.48
2023-01-01T14:11:35.258Z,99665.55
2023-01-01T14:14:24.298Z,99661.98
2023-01-01T14:16:58.184Z,99663.34
2023-01-01T14:19:30.706Z,99659.98
2023-01-01T14:22:01.869Z,99658.52
2023-01-01T14:24:33.314Z,99650.50
2023-01-01T14:27:07.846Z,99647.86
2023-01-01T14:29:39.487Z,99648.38
2023-01-01T14:32:25.484Z,99648.39
2023-01-01T14:35:14.634Z,99642.08
2023-01-01T14:37:45.728Z,99642.66
2023-01-01T14:40:26.737Z,99645.64
2023-01-01T14:43:03.536Z,99647.83
2023-01-01T14:45:36.797Z,99646.11
2023-01-01T14:48:18.315Z,99649.00
2023-01-01T14:50:53.136Z,99656.13
2023-01-01T14:53:31.779Z,99659.25
2023-01-01T14:56:07.243Z,99658.63
2023-01-01T14:58:41.745Z,99663.44
2023-01-01T15:01:24.639Z,99661.09
2023-01-01T15:04:03.368Z,99662.75
2023-01-01T15:06:34.551Z,99663.06
2023-01-01T15:09:05.625Z,99663.73
2023-01-01T15:11:36.467Z,99666.27
2023-01-01T15:14:07.335Z,99666.37
2023-01-01T15:16:40.716Z,99670.32
2023-01-01T15:19:24.513Z,99667.09
2023-01-01T15:21:59.234Z,99667.60
2023-01-01T15:24:30.966Z,99668.88
2023-01-01T15:27:04.674Z,99672.10
2023-01-01T15:29:35.621Z,99670.40
2023-01-01T15:32:09.366Z,99669.47
2023-01-01T15:34:42.615Z,99676.10
2023-01-01T15:37:18.857Z,99681.00
2023-01-01T15:39:52.275Z,99686.13
2023-01-01T15:42:37.445Z,99688.83
2023-01-01T15:45:28.325Z,99697.74
2023-01-01T15:48:18.958Z,99700.79
2023-01-01T15:51:04.813Z,99702.25
2023-01-01T15:53:41.413Z,99699.73
2023-01-01T15:56:15.242Z,99701.98
2023-01-01T15:58:53.940Z,99700.34
2023-01-01T16:01:27.571Z,99701.02
2023-01-01T16:04:08.428Z,99695.02
2023-01-01T16:06:46.218Z,99695.54
2023-01-01T16:09:18.008Z,99700.91
2023-01-01T16:11:52.531Z,99700.86
2023-01-01T16:14:23.859Z,99700.40
2023-01-01T16:17:01.007Z,99703.05
2023-01-01T16:19:33.667Z,99707.68
2023-01-01T16:22:04.580Z,99704.90
2023-01-01T16:24:37.629Z,99708.13
2023-01-01T16:27:08.665Z,99708.92
2023-01-01T16:29:43.164Z,99709.20
2023-01-01T16:32:18.801Z,99709.91
2023-01-01T16:34:49.941Z,99705.31
2023-01-01T16:37:22.894Z,99706.34
2023-01-01T16:39:54.173Z,99709.23
2023-01-01T16:42:25.480Z,99711.32
2023-01-01T16:44:56.416Z,99713.77
2023-01-01T16:47:27.375Z,99712.33
2023-01-01T16:49:58.819Z,99715.39
2023-01-01T16:52:33.465Z,99719.45
2023-01-01T16:55:05.315Z,99724.16
2023-01-01T16:57:36.657Z,99724.97
2023-01-01T17:00:09.220Z,99716.44
2023-01-01T17:02:40.337Z,99723.10
2023-01-01T17:05:12.748Z,99725.50
2023-01-01T17:07:43.783Z,99729.66
2023-01-01T17:10:14.848Z,99732.81
2023-01-01T17:12:45.796Z,99733.52
2023-01-01T17:15:16.756Z,99733.46
2023-01-01T17:17:47.680Z,99738.05
2023-01-01T17:20:18.838Z,99738.59
2023-01-01T17:22:49.862Z,99737.44
2023-01-01T17:25:20.891Z,99735.77
2023-01-01T17:27:51.748Z,99740.38
2023-01-01T17:30:22.769Z,99741.73
2023-01-01T17:32:53.736Z,99744.75
2023-01-01T17:35:29.846Z,99748.99
2023-01-01T17:38:04.061Z,99748.20
2023-01-01T17:40:37.064Z,99753.02
2023-01-01T17:43:08.429Z,99753.01
2023-01-01T17:45:40.840Z,99754.59
2023-01-01T17:48:11.941Z,99754.90
2023-01-01T17:50:44.961Z,99759.34
2023-01-01T17:53:15.916Z,99754.24
2023-01-01T17:55:46.913Z,99761.31
2023-01-01T17:58:18.009Z,99757.07
2023-01-01T18:00:49.266Z,99756.95
2023-01-01T18:03:22.834Z,99761.17
2023-01-01T18:05:58.144Z,99762.40
2023-01-01T18:08:31.615Z,99763.31
2023-01-01T18:11:03.503Z,99761.31
2023-01-01T18:13:34.612Z,99759.88
2023-01-01T18:16:06.890Z,99758.02
2023-01-01T18:18:40.842Z,99757.63
2023-01-01T18:21:19.545Z,99756.13
2023-01-01T18:24:23.859Z,99761.23
2023-01-01T18:27:04.930Z,99766.75
2023-01-01T18:29:37.230Z,99763.91
2023-01-01T18:32:17.525Z,99769.91
2023-01-01T18:34:49.096Z,99774.01
2023-01-01T18:37:20.348Z,99778.09
2023-01-01T18:39:51.487Z,99777.16
2023-01-01T18:42:35.394Z,99778.53
2023-01-01T18:45:15.606Z,99777.77
2023-01-01T18:47:47.046Z,99776.98
2023-01-01T18:50:25.034Z,99778.73
2023-01-01T18:53:04.244Z,99781.19
2023-01-01T18:55:35.374Z,99780.95
2023-01-01T18:58:17.334Z,99777.98
2023-01-01T19:00:49.226Z,99774.85
2023-01-01T19:03:28.625Z,99771.77
2023-01-01T19:06:01.554Z,99772.13
2023-01-01T19:08:37.811Z,99780.92
2023-01-01T19:11:18.724Z,99788.79
2023-01-01T19:13:50.237Z,99789.00
2023-01-01T19:16:27.621Z,99786.44
2023-01-01T19:19:08.285Z,99786.67
2023-01-01T19:21:51.031Z,99780.59
2023-01-01T19:24:26.268Z,99776.13
2023-01-01T19:27:01.431Z,99777.08
2023-01-01T19:29:36.562Z,99774.52
2023-01-01T19:32:08.019Z,99768.49
2023-01-01T19:34:40.388Z,99765.31
2023-01-01T19:37:15.956Z,99760.67
2023-01-01T19:39:47.099Z,99758.34
2023-01-01T19:42:18.468Z,99756.11
2023-01-01T19:44:49.401Z,99754.77
2023-01-01T19:47:20.529Z,99756.73
2023-01-01T19:49:55.534Z,99763.73
2023-01-01T19:52:29.445Z,99767.17
2023-01-01T19:55:00.619Z,99767.57
2023-01-01T19:57:31.933Z,99771.23
2023-01-01T20:00:02.814Z,99766.48
2023-01-01T20:02:49.357Z,99760.60
2023-01-01T20:05:20.973Z,99752.63
2023-01-01T20:08:12.267Z,99748.15
2023-01-01T20:10:45.090Z,99749.05
2023-01-01T20:13:16.118Z,99749.86
2023-01-01T20:15:47.683Z,99746.75
2023-01-01T20:18:18.713Z,99745.24
2023-01-01T20:21:07.000Z,99743.91
2023-01-01T20:23:38.375Z,99748.65
2023-01-01T20:26:11.024Z,99757.02
2023-01-01T20:28:59.839Z,99762.14
2023-01-01T20:31:30.708Z,99755.86
2023-01-01T20:34:01.755Z,99757.52
2023-01-01T20:36:50.269Z,99755.95
2023-01-01T20:39:24.487Z,99753.72
2023-01-01T20:41:55.531Z,99752.48
2023-01-01T20:44:26.791Z,99755.34
2023-01-01T20:46:57.875Z,99749.34
2023-01-01T20:49:28.773Z,99750.23
2023-01-01T20:51:59.707Z,99749.50
2023-01-01T20:54:30.635Z,99749.92
2023-01-01T20:57:01.554Z,99755.55
2023-01-01T20:59:37.626Z,99753.27
2023-01-01T21:02:11.468Z,99754.20
2023-01-01T21:04:42.710Z,99754.13
2023-01-01T21:07:14.471Z,99759.33
2023-01-01T21:09:45.385Z,99752.59
2023-01-01T21:12:16.297Z,99758.55
2023-01-01T21:14:47.212Z,99754.02
2023-01-01T21:17:23.012Z,99755.21
2023-01-01T21:19:56.332Z,99758.75
2023-01-01T21:22:27.824Z,99755.38
2023-01-01T21:25:23.893Z,99755.38
2023-01-01T21:27:52.406Z,99756.02
2023-01-01T21:30:23.524Z,99757.61
2023-01-01T21:32:54.500Z,99753.34
2023-01-01T21:35:31.283Z,99755.73
2023-01-01T21:38:04.975Z,99758.27
2023-01-01T21:40:37.354Z,99754.25
2023-01-01T21:43:21.392Z,99757.98
2023-01-01T21:45:52.654Z,99757.53
2023-01-01T21:48:30.239Z,99757.02
2023-01-01T21:51:02.219Z,99758.59
2023-01-01T21:53:34.920Z,99760.63
2023-01-01T21:56:20.467Z,99774.41
2023-01-01T21:59:08.910Z,99772.75
2023-01-01T22:01:42.529Z,99772.60
2023-01-01T22:04:23.407Z,99767.80
2023-01-01T22:06:56.306Z,99772.38
2023-01-01T22:09:31.924Z,99773.79
2023-01-01T22:12:18.517Z,99776.15
2023-01-01T22:14:51.169Z,99773.88
2023-01-01T22:17:25.818Z,99771.13
2023-01-01T22:19:59.187Z,99768.91
2023-01-01T22:22:33.743Z,99766.16
2023-01-01T22:25:17.596Z,99762.63
2023-01-01T22:27:48.477Z,99759.70
2023-01-01T22:30:38.879Z,99767.71
2023-01-01T22:33:17.495Z,99769.04
2023-01-01T22:35:48.625Z,99760.40
2023-01-01T22:38:23.184Z,99759.81
2023-01-01T22:40:54.757Z,99754.35
2023-01-01T22:43:31.722Z,99756.87
2023-01-01T22:46:06.041Z,99763.98
2023-01-01T22:48:39.507Z,99766.48
2023-01-01T22:51:14.386Z,99760.91
2023-01-01T22:53:45.539Z,99759.96
2023-01-01T22:56:16.280Z,99755.71
2023-01-01T22:58:51.620Z,99751.55
2023-01-01T23:01:25.844Z,99745.14
2023-01-01T23:03:56.794Z,99735.33
2023-01-01T23:06:27.997Z,99735.99
2023-01-01T23:08:59.358Z,99743.79
2023-01-01T23:11:30.448Z,99742.86
2023-01-01T23:14:18.869Z,99741.91
2023-01-01T23:16:49.609Z,99735.63
2023-01-01T23:19:20.446Z,99732.98
2023-01-01T23:21:51.497Z,99727.95
2023-01-01T23:24:24.683Z,99727.89
2023-01-01T23:26:55.841Z,99725.87
2023-01-01T23:29:28.405Z,99725.10
2023-01-01T23:31:59.477Z,99720.40
2023-01-01T23:34:30.492Z,99715.81
2023-01-01T23:37:01.545Z,99711.19
2023-01-01T23:39:32.389Z,99698.19
2023-01-01T23:42:03.234Z,99695.34
2023-01-01T23:44:34.031Z,99693.77
2023-01-01T23:47:05.305Z,99691.31
2023-01-01T23:49:36.534Z,99687.70
2023-01-01T23:52:08.524Z,99677.65
2023-01-01T23:54:39.861Z,99679.75
2023-01-01T23:57:10.513Z,99675.10
2023-01-01T23:59:41.872Z,99682.44
